sensor_id;sensor_type;location;lat;lon;timestamp;P1;durP1;ratioP1;P2;durP2;ratioP2
67712;SDS011;67640;55.784;49.138;2023-11-21T00:04:01;9.60;;;3.12;;
67712;SDS011;67640;55.784;49.138;2023-11-21T00:09:06;9.90;;;3.27;;
67712;SDS011;67640;55.784;49.138;2023-11-21T00:14:25;11.53;;;3.37;;
67712;SDS011;67640;55.784;49.138;2023-11-21T00:19:45;7.93;;;2.23;;
67712;SDS011;67640;55.784;49.138;2023-11-21T00:25:04;8.48;;;2.90;;
67712;SDS011;67640;55.784;49.138;2023-11-21T00:30:10;9.30;;;2.70;;
67712;SDS011;67640;55.784;49.138;2023-11-21T00:35:15;9.47;;;2.80;;
67712;SDS011;67640;55.784;49.138;2023-11-21T00:40:34;6.08;;;2.00;;
67712;SDS011;67640;55.784;49.138;2023-11-21T00:45:39;6.43;;;2.50;;
67712;SDS011;67640;55.784;49.138;2023-11-21T00:50:58;7.15;;;2.25;;
67712;SDS011;67640;55.784;49.138;2023-11-21T00:56:18;7.45;;;2.52;;
67712;SDS011;67640;55.784;49.138;2023-11-21T01:01:23;5.63;;;2.20;;
67712;SDS011;67640;55.784;49.138;2023-11-21T01:06:42;3.40;;;1.32;;
67712;SDS011;67640;55.784;49.138;2023-11-21T01:11:47;6.27;;;2.40;;
67712;SDS011;67640;55.784;49.138;2023-11-21T01:17:07;5.97;;;2.00;;
67712;SDS011;67640;55.784;49.138;2023-11-21T01:22:26;4.40;;;1.50;;
67712;SDS011;67640;55.784;49.138;2023-11-21T01:27:33;5.80;;;1.90;;
67712;SDS011;67640;55.784;49.138;2023-11-21T01:32:52;8.75;;;2.33;;
67712;SDS011;67640;55.784;49.138;2023-11-21T01:37:57;4.77;;;1.80;;
67712;SDS011;67640;55.784;49.138;2023-11-21T01:43:17;6.97;;;2.27;;
67712;SDS011;67640;55.784;49.138;2023-11-21T01:48:36;6.47;;;1.80;;
67712;SDS011;67640;55.784;49.138;2023-11-21T01:53:42;5.17;;;1.83;;
67712;SDS011;67640;55.784;49.138;2023-11-21T01:59:01;6.90;;;2.15;;
67712;SDS011;67640;55.784;49.138;2023-11-21T02:04:18;4.87;;;1.75;;
67712;SDS011;67640;55.784;49.138;2023-11-21T02:14:46;5.27;;;1.80;;
67712;SDS011;67640;55.784;49.138;2023-11-21T02:19:51;4.17;;;1.47;;
67712;SDS011;67640;55.784;49.138;2023-11-21T02:24:58;5.93;;;1.50;;
67712;SDS011;67640;55.784;49.138;2023-11-21T02:30:17;6.97;;;1.98;;
67712;SDS011;67640;55.784;49.138;2023-11-21T02:35:36;5.90;;;1.90;;
67712;SDS011;67640;55.784;49.138;2023-11-21T02:40:57;7.40;;;2.00;;
67712;SDS011;67640;55.784;49.138;2023-11-21T02:46:02;5.40;;;2.08;;
67712;SDS011;67640;55.784;49.138;2023-11-21T02:51:13;5.13;;;1.57;;
67712;SDS011;67640;55.784;49.138;2023-11-21T02:56:32;6.92;;;1.70;;
67712;SDS011;67640;55.784;49.138;2023-11-21T03:01:51;7.55;;;2.20;;
67712;SDS011;67640;55.784;49.138;2023-11-21T03:07:10;7.90;;;2.63;;
67712;SDS011;67640;55.784;49.138;2023-11-21T03:12:16;4.65;;;2.10;;
67712;SDS011;67640;55.784;49.138;2023-11-21T03:17:24;5.17;;;1.90;;
67712;SDS011;67640;55.784;49.138;2023-11-21T03:22:43;3.83;;;1.47;;
67712;SDS011;67640;55.784;49.138;2023-11-21T03:28:02;6.00;;;2.02;;
67712;SDS011;67640;55.784;49.138;2023-11-21T03:33:21;5.17;;;2.10;;
67712;SDS011;67640;55.784;49.138;2023-11-21T03:38:27;5.65;;;2.25;;
67712;SDS011;67640;55.784;49.138;2023-11-21T03:43:31;6.87;;;2.03;;
67712;SDS011;67640;55.784;49.138;2023-11-21T03:48:36;8.58;;;2.20;;
67712;SDS011;67640;55.784;49.138;2023-11-21T03:53:54;5.40;;;1.95;;
67712;SDS011;67640;55.784;49.138;2023-11-21T03:58:59;8.83;;;2.25;;
67712;SDS011;67640;55.784;49.138;2023-11-21T04:04:04;7.90;;;2.20;;
67712;SDS011;67640;55.784;49.138;2023-11-21T04:09:37;5.85;;;2.22;;
67712;SDS011;67640;55.784;49.138;2023-11-21T04:14:42;8.65;;;2.17;;
67712;SDS011;67640;55.784;49.138;2023-11-21T04:20:02;7.60;;;2.90;;
67712;SDS011;67640;55.784;49.138;2023-11-21T04:25:22;9.80;;;2.70;;
67712;SDS011;67640;55.784;49.138;2023-11-21T04:30:41;6.27;;;2.27;;
67712;SDS011;67640;55.784;49.138;2023-11-21T04:36:00;7.28;;;2.60;;
67712;SDS011;67640;55.784;49.138;2023-11-21T04:41:05;8.23;;;3.30;;
67712;SDS011;67640;55.784;49.138;2023-11-21T04:46:10;8.17;;;2.70;;
67712;SDS011;67640;55.784;49.138;2023-11-21T04:51:27;7.75;;;2.77;;
67712;SDS011;67640;55.784;49.138;2023-11-21T04:56:32;8.10;;;2.83;;
67712;SDS011;67640;55.784;49.138;2023-11-21T05:01:51;7.33;;;2.80;;
67712;SDS011;67640;55.784;49.138;2023-11-21T05:06:56;9.60;;;2.63;;
67712;SDS011;67640;55.784;49.138;2023-11-21T05:12:15;11.22;;;2.90;;
67712;SDS011;67640;55.784;49.138;2023-11-21T05:17:20;9.53;;;2.80;;
67712;SDS011;67640;55.784;49.138;2023-11-21T05:22:26;7.93;;;3.07;;
67712;SDS011;67640;55.784;49.138;2023-11-21T05:27:46;7.42;;;2.77;;
67712;SDS011;67640;55.784;49.138;2023-11-21T05:33:06;7.50;;;2.92;;
67712;SDS011;67640;55.784;49.138;2023-11-21T05:38:25;7.15;;;3.22;;
67712;SDS011;67640;55.784;49.138;2023-11-21T05:43:30;8.45;;;3.40;;
67712;SDS011;67640;55.784;49.138;2023-11-21T05:48:37;8.87;;;3.67;;
67712;SDS011;67640;55.784;49.138;2023-11-21T05:53:56;9.65;;;3.58;;
67712;SDS011;67640;55.784;49.138;2023-11-21T05:59:15;8.75;;;3.27;;
67712;SDS011;67640;55.784;49.138;2023-11-21T06:04:19;8.90;;;3.30;;
67712;SDS011;67640;55.784;49.138;2023-11-21T06:09:39;10.75;;;3.50;;
67712;SDS011;67640;55.784;49.138;2023-11-21T06:14:43;7.58;;;3.42;;
67712;SDS011;67640;55.784;49.138;2023-11-21T06:19:49;9.43;;;3.90;;
67712;SDS011;67640;55.784;49.138;2023-11-21T06:25:07;9.15;;;2.80;;
67712;SDS011;67640;55.784;49.138;2023-11-21T06:30:14;10.25;;;3.42;;
67712;SDS011;67640;55.784;49.138;2023-11-21T06:35:33;8.63;;;3.30;;
67712;SDS011;67640;55.784;49.138;2023-11-21T06:40:39;11.08;;;3.67;;
67712;SDS011;67640;55.784;49.138;2023-11-21T06:46:04;9.88;;;3.55;;
67712;SDS011;67640;55.784;49.138;2023-11-21T06:51:28;10.35;;;4.00;;
67712;SDS011;67640;55.784;49.138;2023-11-21T06:56:47;10.55;;;4.17;;
67712;SDS011;67640;55.784;49.138;2023-11-21T07:02:06;8.43;;;3.80;;
67712;SDS011;67640;55.784;49.138;2023-11-21T07:07:26;9.45;;;3.87;;
67712;SDS011;67640;55.784;49.138;2023-11-21T07:12:46;10.60;;;3.67;;
67712;SDS011;67640;55.784;49.138;2023-11-21T07:17:51;10.23;;;3.85;;
67712;SDS011;67640;55.784;49.138;2023-11-21T07:23:10;10.08;;;3.58;;
67712;SDS011;67640;55.784;49.138;2023-11-21T07:28:16;10.63;;;3.77;;
67712;SDS011;67640;55.784;49.138;2023-11-21T07:33:35;11.03;;;3.80;;
67712;SDS011;67640;55.784;49.138;2023-11-21T07:38:54;9.80;;;4.03;;
67712;SDS011;67640;55.784;49.138;2023-11-21T07:44:13;10.80;;;3.90;;
67712;SDS011;67640;55.784;49.138;2023-11-21T07:49:32;9.58;;;3.62;;
67712;SDS011;67640;55.784;49.138;2023-11-21T07:54:37;8.70;;;3.42;;
67712;SDS011;67640;55.784;49.138;2023-11-21T07:59:42;9.90;;;3.73;;
67712;SDS011;67640;55.784;49.138;2023-11-21T08:05:01;10.08;;;4.30;;
67712;SDS011;67640;55.784;49.138;2023-11-21T08:10:21;12.70;;;3.80;;
67712;SDS011;67640;55.784;49.138;2023-11-21T08:15:40;9.93;;;4.00;;
67712;SDS011;67640;55.784;49.138;2023-11-21T08:20:46;9.75;;;4.40;;
67712;SDS011;67640;55.784;49.138;2023-11-21T08:31:10;16.10;;;4.00;;
67712;SDS011;67640;55.784;49.138;2023-11-21T08:36:15;11.83;;;4.10;;
67712;SDS011;67640;55.784;49.138;2023-11-21T08:41:35;10.53;;;3.60;;
67712;SDS011;67640;55.784;49.138;2023-11-21T08:46:54;10.72;;;3.58;;
67712;SDS011;67640;55.784;49.138;2023-11-21T08:52:13;11.43;;;4.22;;
67712;SDS011;67640;55.784;49.138;2023-11-21T08:57:32;8.75;;;3.00;;
67712;SDS011;67640;55.784;49.138;2023-11-21T09:02:51;16.15;;;4.50;;
67712;SDS011;67640;55.784;49.138;2023-11-21T09:07:56;11.65;;;4.03;;
67712;SDS011;67640;55.784;49.138;2023-11-21T09:13:13;10.03;;;3.80;;
67712;SDS011;67640;55.784;49.138;2023-11-21T09:18:19;9.83;;;3.90;;
67712;SDS011;67640;55.784;49.138;2023-11-21T09:23:38;9.08;;;3.95;;
67712;SDS011;67640;55.784;49.138;2023-11-21T09:28:57;11.23;;;4.27;;
67712;SDS011;67640;55.784;49.138;2023-11-21T09:34:03;9.40;;;3.80;;
67712;SDS011;67640;55.784;49.138;2023-11-21T09:39:22;8.35;;;3.65;;
67712;SDS011;67640;55.784;49.138;2023-11-21T09:50:06;11.60;;;4.65;;
67712;SDS011;67640;55.784;49.138;2023-11-21T09:55:28;15.35;;;4.95;;
67712;SDS011;67640;55.784;49.138;2023-11-21T10:00:33;9.00;;;4.37;;
67712;SDS011;67640;55.784;49.138;2023-11-21T10:05:40;10.78;;;4.62;;
67712;SDS011;67640;55.784;49.138;2023-11-21T10:11:00;10.47;;;4.70;;
67712;SDS011;67640;55.784;49.138;2023-11-21T10:16:27;11.57;;;5.03;;
67712;SDS011;67640;55.784;49.138;2023-11-21T10:21:32;10.78;;;4.53;;
67712;SDS011;67640;55.784;49.138;2023-11-21T10:26:51;6.53;;;3.20;;
67712;SDS011;67640;55.784;49.138;2023-11-21T10:31:58;14.68;;;4.55;;
67712;SDS011;67640;55.784;49.138;2023-11-21T10:37:18;10.10;;;4.80;;
67712;SDS011;67640;55.784;49.138;2023-11-21T10:42:44;12.13;;;4.75;;
67712;SDS011;67640;55.784;49.138;2023-11-21T10:47:49;14.73;;;5.73;;
67712;SDS011;67640;55.784;49.138;2023-11-21T10:53:10;13.28;;;6.33;;
67712;SDS011;67640;55.784;49.138;2023-11-21T10:58:29;18.50;;;6.60;;
67712;SDS011;67640;55.784;49.138;2023-11-21T11:03:48;16.50;;;6.87;;
67712;SDS011;67640;55.784;49.138;2023-11-21T11:09:08;14.78;;;5.65;;
67712;SDS011;67640;55.784;49.138;2023-11-21T11:14:14;17.50;;;6.17;;
67712;SDS011;67640;55.784;49.138;2023-11-21T11:19:24;19.50;;;5.83;;
67712;SDS011;67640;55.784;49.138;2023-11-21T11:41:07;11.25;;;4.12;;
67712;SDS011;67640;55.784;49.138;2023-11-21T11:57:19;11.80;;;4.80;;
67712;SDS011;67640;55.784;49.138;2023-11-21T12:03:08;11.78;;;4.87;;
67712;SDS011;67640;55.784;49.138;2023-11-21T12:07:58;15.13;;;5.12;;
67712;SDS011;67640;55.784;49.138;2023-11-21T12:13:18;10.98;;;4.55;;
67712;SDS011;67640;55.784;49.138;2023-11-21T12:18:37;10.72;;;4.50;;
67712;SDS011;67640;55.784;49.138;2023-11-21T12:23:42;14.23;;;4.10;;
67712;SDS011;67640;55.784;49.138;2023-11-21T12:29:02;10.40;;;4.67;;
67712;SDS011;67640;55.784;49.138;2023-11-21T12:34:21;13.20;;;4.67;;
67712;SDS011;67640;55.784;49.138;2023-11-21T12:39:40;17.98;;;5.70;;
67712;SDS011;67640;55.784;49.138;2023-11-21T12:44:45;13.90;;;5.25;;
67712;SDS011;67640;55.784;49.138;2023-11-21T12:49:52;13.97;;;3.97;;
67712;SDS011;67640;55.784;49.138;2023-11-21T12:55:12;12.33;;;4.47;;
67712;SDS011;67640;55.784;49.138;2023-11-21T13:00:18;13.73;;;4.90;;
67712;SDS011;67640;55.784;49.138;2023-11-21T13:05:43;11.43;;;4.97;;
67712;SDS011;67640;55.784;49.138;2023-11-21T13:11:02;12.70;;;4.78;;
67712;SDS011;67640;55.784;49.138;2023-11-21T13:16:07;8.40;;;3.22;;
67712;SDS011;67640;55.784;49.138;2023-11-21T13:21:26;11.93;;;4.50;;
67712;SDS011;67640;55.784;49.138;2023-11-21T13:26:45;13.75;;;4.97;;
67712;SDS011;67640;55.784;49.138;2023-11-21T13:31:51;11.67;;;3.93;;
67712;SDS011;67640;55.784;49.138;2023-11-21T13:37:11;11.55;;;4.10;;
67712;SDS011;67640;55.784;49.138;2023-11-21T13:42:16;13.58;;;4.35;;
67712;SDS011;67640;55.784;49.138;2023-11-21T13:47:35;11.25;;;3.95;;
67712;SDS011;67640;55.784;49.138;2023-11-21T13:52:54;10.85;;;3.55;;
67712;SDS011;67640;55.784;49.138;2023-11-21T13:57:59;10.70;;;4.75;;
67712;SDS011;67640;55.784;49.138;2023-11-21T14:03:18;11.53;;;3.70;;
67712;SDS011;67640;55.784;49.138;2023-11-21T14:08:37;10.35;;;3.62;;
67712;SDS011;67640;55.784;49.138;2023-11-21T14:13:56;11.83;;;3.97;;
67712;SDS011;67640;55.784;49.138;2023-11-21T14:19:15;11.25;;;4.25;;
67712;SDS011;67640;55.784;49.138;2023-11-21T14:24:34;7.28;;;2.80;;
67712;SDS011;67640;55.784;49.138;2023-11-21T14:29:39;15.65;;;3.72;;
67712;SDS011;67640;55.784;49.138;2023-11-21T14:34:59;10.88;;;3.30;;
67712;SDS011;67640;55.784;49.138;2023-11-21T14:40:18;12.60;;;3.60;;
67712;SDS011;67640;55.784;49.138;2023-11-21T14:45:37;10.47;;;3.60;;
67712;SDS011;67640;55.784;49.138;2023-11-21T14:50:43;10.88;;;3.80;;
67712;SDS011;67640;55.784;49.138;2023-11-21T14:56:09;11.33;;;3.80;;
67712;SDS011;67640;55.784;49.138;2023-11-21T15:01:15;9.08;;;2.87;;
67712;SDS011;67640;55.784;49.138;2023-11-21T15:06:34;11.25;;;3.40;;
67712;SDS011;67640;55.784;49.138;2023-11-21T15:11:40;7.67;;;2.80;;
67712;SDS011;67640;55.784;49.138;2023-11-21T15:17:00;7.03;;;2.70;;
67712;SDS011;67640;55.784;49.138;2023-11-21T15:22:17;9.18;;;3.30;;
67712;SDS011;67640;55.784;49.138;2023-11-21T15:27:23;12.05;;;3.35;;
67712;SDS011;67640;55.784;49.138;2023-11-21T15:32:42;9.93;;;3.40;;
67712;SDS011;67640;55.784;49.138;2023-11-21T15:38:01;10.05;;;3.27;;
67712;SDS011;67640;55.784;49.138;2023-11-21T15:43:20;8.63;;;3.42;;
67712;SDS011;67640;55.784;49.138;2023-11-21T15:48:39;9.50;;;3.70;;
67712;SDS011;67640;55.784;49.138;2023-11-21T15:53:58;14.70;;;3.45;;
67712;SDS011;67640;55.784;49.138;2023-11-21T15:59:17;13.68;;;4.47;;
67712;SDS011;67640;55.784;49.138;2023-11-21T16:04:23;10.97;;;3.60;;
67712;SDS011;67640;55.784;49.138;2023-11-21T16:09:50;8.38;;;3.52;;
67712;SDS011;67640;55.784;49.138;2023-11-21T16:14:56;9.83;;;3.30;;
67712;SDS011;67640;55.784;49.138;2023-11-21T16:20:15;6.40;;;2.27;;
67712;SDS011;67640;55.784;49.138;2023-11-21T16:25:34;8.35;;;3.15;;
67712;SDS011;67640;55.784;49.138;2023-11-21T16:30:54;9.20;;;2.77;;
67712;SDS011;67640;55.784;49.138;2023-11-21T16:35:59;9.43;;;3.47;;
67712;SDS011;67640;55.784;49.138;2023-11-21T16:41:05;6.17;;;2.02;;
67712;SDS011;67640;55.784;49.138;2023-11-21T16:46:27;7.87;;;2.90;;
67712;SDS011;67640;55.784;49.138;2023-11-21T16:51:33;7.78;;;2.72;;
67712;SDS011;67640;55.784;49.138;2023-11-21T16:56:42;10.55;;;2.95;;
67712;SDS011;67640;55.784;49.138;2023-11-21T17:02:02;6.50;;;2.27;;
67712;SDS011;67640;55.784;49.138;2023-11-21T17:07:21;7.37;;;2.50;;
67712;SDS011;67640;55.784;49.138;2023-11-21T17:12:40;6.75;;;2.75;;
67712;SDS011;67640;55.784;49.138;2023-11-21T17:17:46;4.25;;;1.77;;
67712;SDS011;67640;55.784;49.138;2023-11-21T17:22:51;6.83;;;2.30;;
67712;SDS011;67640;55.784;49.138;2023-11-21T17:27:57;7.62;;;2.45;;
67712;SDS011;67640;55.784;49.138;2023-11-21T17:33:30;6.97;;;2.02;;
67712;SDS011;67640;55.784;49.138;2023-11-21T17:38:35;8.43;;;3.03;;
67712;SDS011;67640;55.784;49.138;2023-11-21T17:43:54;8.70;;;2.25;;
67712;SDS011;67640;55.784;49.138;2023-11-21T17:49:15;8.10;;;2.60;;
67712;SDS011;67640;55.784;49.138;2023-11-21T17:54:34;9.00;;;4.03;;
67712;SDS011;67640;55.784;49.138;2023-11-21T17:59:53;7.37;;;2.22;;
67712;SDS011;67640;55.784;49.138;2023-11-21T18:05:12;7.15;;;2.17;;
67712;SDS011;67640;55.784;49.138;2023-11-21T18:10:17;5.62;;;1.65;;
67712;SDS011;67640;55.784;49.138;2023-11-21T18:15:23;6.78;;;2.08;;
67712;SDS011;67640;55.784;49.138;2023-11-21T18:20:42;7.65;;;2.72;;
67712;SDS011;67640;55.784;49.138;2023-11-21T18:25:48;6.13;;;2.40;;
67712;SDS011;67640;55.784;49.138;2023-11-21T18:31:07;5.17;;;1.77;;
67712;SDS011;67640;55.784;49.138;2023-11-21T18:36:26;8.40;;;2.33;;
67712;SDS011;67640;55.784;49.138;2023-11-21T18:41:45;6.03;;;1.95;;
67712;SDS011;67640;55.784;49.138;2023-11-21T18:47:05;7.40;;;2.27;;
67712;SDS011;67640;55.784;49.138;2023-11-21T18:52:10;7.93;;;2.43;;
67712;SDS011;67640;55.784;49.138;2023-11-21T18:57:18;11.65;;;2.58;;
67712;SDS011;67640;55.784;49.138;2023-11-21T19:02:37;7.78;;;2.50;;
67712;SDS011;67640;55.784;49.138;2023-11-21T19:07:42;7.90;;;2.27;;
67712;SDS011;67640;55.784;49.138;2023-11-21T19:13:01;9.20;;;2.37;;
67712;SDS011;67640;55.784;49.138;2023-11-21T19:18:06;4.58;;;1.67;;
67712;SDS011;67640;55.784;49.138;2023-11-21T19:23:11;7.90;;;2.47;;
67712;SDS011;67640;55.784;49.138;2023-11-21T19:28:28;6.73;;;2.30;;
67712;SDS011;67640;55.784;49.138;2023-11-21T19:33:34;8.53;;;2.80;;
67712;SDS011;67640;55.784;49.138;2023-11-21T19:38:53;7.33;;;2.10;;
67712;SDS011;67640;55.784;49.138;2023-11-21T19:43:58;5.50;;;1.75;;
67712;SDS011;67640;55.784;49.138;2023-11-21T19:49:17;6.45;;;2.25;;
67712;SDS011;67640;55.784;49.138;2023-11-21T19:54:36;5.23;;;1.70;;
67712;SDS011;67640;55.784;49.138;2023-11-21T19:59:55;7.67;;;2.27;;
67712;SDS011;67640;55.784;49.138;2023-11-21T20:05:00;6.15;;;1.85;;
67712;SDS011;67640;55.784;49.138;2023-11-21T20:10:07;6.62;;;2.12;;
67712;SDS011;67640;55.784;49.138;2023-11-21T20:15:26;7.78;;;2.35;;
67712;SDS011;67640;55.784;49.138;2023-11-21T20:20:46;4.55;;;1.52;;
67712;SDS011;67640;55.784;49.138;2023-11-21T20:25:52;7.37;;;2.43;;
67712;SDS011;67640;55.784;49.138;2023-11-21T20:30:57;5.70;;;2.02;;
67712;SDS011;67640;55.784;49.138;2023-11-21T20:36:02;6.90;;;1.67;;
67712;SDS011;67640;55.784;49.138;2023-11-21T20:41:21;6.37;;;2.10;;
67712;SDS011;67640;55.784;49.138;2023-11-21T20:46:40;3.92;;;1.60;;
67712;SDS011;67640;55.784;49.138;2023-11-21T20:51:59;6.33;;;2.03;;
67712;SDS011;67640;55.784;49.138;2023-11-21T20:57:05;4.17;;;1.67;;
67712;SDS011;67640;55.784;49.138;2023-11-21T21:02:11;7.57;;;2.27;;
67712;SDS011;67640;55.784;49.138;2023-11-21T21:07:17;6.37;;;1.90;;
67712;SDS011;67640;55.784;49.138;2023-11-21T21:12:34;7.28;;;2.25;;
67712;SDS011;67640;55.784;49.138;2023-11-21T21:17:39;5.12;;;1.50;;
67712;SDS011;67640;55.784;49.138;2023-11-21T21:22:58;8.05;;;2.30;;
67712;SDS011;67640;55.784;49.138;2023-11-21T21:28:04;6.53;;;1.70;;
67712;SDS011;67640;55.784;49.138;2023-11-21T21:33:24;5.23;;;1.93;;
67712;SDS011;67640;55.784;49.138;2023-11-21T21:38:43;5.97;;;2.00;;
67712;SDS011;67640;55.784;49.138;2023-11-21T21:43:48;5.90;;;1.50;;
67712;SDS011;67640;55.784;49.138;2023-11-21T21:49:08;4.40;;;1.40;;
67712;SDS011;67640;55.784;49.138;2023-11-21T21:54:13;7.53;;;1.80;;
67712;SDS011;67640;55.784;49.138;2023-11-21T21:59:19;3.87;;;1.50;;
67712;SDS011;67640;55.784;49.138;2023-11-21T22:04:38;3.90;;;1.13;;
67712;SDS011;67640;55.784;49.138;2023-11-21T22:09:57;4.33;;;1.25;;
67712;SDS011;67640;55.784;49.138;2023-11-21T22:15:16;7.40;;;1.83;;
67712;SDS011;67640;55.784;49.138;2023-11-21T22:20:21;5.05;;;1.25;;
67712;SDS011;67640;55.784;49.138;2023-11-21T22:25:40;6.58;;;1.67;;
67712;SDS011;67640;55.784;49.138;2023-11-21T22:30:59;5.30;;;1.80;;
67712;SDS011;67640;55.784;49.138;2023-11-21T22:36:05;4.67;;;1.32;;
67712;SDS011;67640;55.784;49.138;2023-11-21T22:41:25;7.07;;;1.87;;
67712;SDS011;67640;55.784;49.138;2023-11-21T22:46:30;7.92;;;2.20;;
67712;SDS011;67640;55.784;49.138;2023-11-21T22:51:49;4.70;;;1.15;;
67712;SDS011;67640;55.784;49.138;2023-11-21T22:57:08;4.90;;;1.60;;
67712;SDS011;67640;55.784;49.138;2023-11-21T23:02:13;4.45;;;1.40;;
67712;SDS011;67640;55.784;49.138;2023-11-21T23:07:32;6.53;;;1.80;;
67712;SDS011;67640;55.784;49.138;2023-11-21T23:12:37;6.10;;;1.60;;
67712;SDS011;67640;55.784;49.138;2023-11-21T23:17:57;6.47;;;1.17;;
67712;SDS011;67640;55.784;49.138;2023-11-21T23:23:16;5.73;;;1.87;;
67712;SDS011;67640;55.784;49.138;2023-11-21T23:28:21;6.95;;;1.70;;
67712;SDS011;67640;55.784;49.138;2023-11-21T23:33:39;4.75;;;1.60;;
67712;SDS011;67640;55.784;49.138;2023-11-21T23:38:45;3.50;;;1.00;;
67712;SDS011;67640;55.784;49.138;2023-11-21T23:44:03;4.00;;;1.20;;
67712;SDS011;67640;55.784;49.138;2023-11-21T23:49:09;6.60;;;1.87;;
67712;SDS011;67640;55.784;49.138;2023-11-21T23:54:23;5.20;;;1.80;;
67712;SDS011;67640;55.784;49.138;2023-11-21T23:59:42;11.65;;;1.27;;
